Williamston, NC

1:19 PM EDT on April 27, 2015 (GMT -0400)
Warren | | Change Station
CLOSE
Current Station
Airport
Location: Washington,
Elevation: 39 ft
Nearby Weather Stations

Elev 39 ft 35.57 °N, 77.05 °W | Updated 24 minutes ago

Partly Cloudy
Partly Cloudy
65 °F
Feels Like 65 °F
N
8
Wind Variable Wind from West

Today
High -- | Low -- °F
--% Chance of Precip.
Yesterday
High -- | Low -- °F
Precip. -- in
6:21 AM 7:51 PM
Waxing Gibbous, 66% visible
Pressure 29.79 in
Visibility 10.0 miles
Clouds Scattered Clouds 5500 ft
Scattered Clouds 9000 ft
Scattered Clouds 11000 ft
Dew Point 43 °F
Humidity 44%
Rainfall 0.00 in
Snow Depth Not available.
UV 9 out of 12
Pollen 2.20 out of 12
Air Quality Not available.
Flu Activity Sporadic
METAR KOCW 271655Z AUTO 28007KT 240V360 10SM SCT055 SCT090 SCT110 19/06 A2979 RMK AO2 T01850061

More Conditions Fewer Conditions

Pressure 29.79 in
Visibility 10.0 miles
Clouds Scattered Clouds 5500 ft
Scattered Clouds 9000 ft
Scattered Clouds 11000 ft
Dew Point 43 °F
Humidity 44%
Rainfall 0.00 in
Snow Depth Not available.
UV 9 out of 12
Pollen 2.20 out of 12
Air Quality Not available.
Flu Activity Sporadic
METAR KOCW 271655Z AUTO 28007KT 240V360 10SM SCT055 SCT090 SCT110 19/06 A2979 RMK AO2 T01850061

More Conditions Fewer Conditions

10-Day Weather Forecast

Almanac

Astronomy

Apr. 27, 2015 Rise Set
Actual Time
Civil Twilight
Nautical Twilight
Astronomical Twilight
Moon
Length of Visible Light
Length of Day
Tomorrow will be .
, % of the Moon is Illuminated

Today's Extremes

State Highs State Lows

Community

WunderPhotos

Upload Photos

1,817,346 photos uploaded!

WunderBlogs® & News

Nearby

Air Quality

  Air Quality AQ Index Pollutant
Not available.

Snow Depth

Station Depth Elevation

Earthquake Activity

City Distance Mag. Time & Date
Minimum magnitude displayed is 2.5.

Coastal Water Temperatures

Place Temperature

Stations

Nearby Weather Stations

Station Location Temp. Windchill Dew Point Humidity Wind Precip. Elev Updated Type